Pireps
You are here: Olympic Virtual Pireps

Flight OLY10067

  • Submitted By: Stavros Sarikas
  • Departure Airport: CHOPIN (EPWA)
  • Arrival Airport: Berlin-Tegel International Airport (EDDT)
  • Aircraft: A320-200 (SX-OAH)
  • Flight Time: 01.06
  • Date Submitted: 14/09/2017
  • Route: LOLSI T174 INDIG L980 KELOD L979 GOVEN T205 NUKRO
  • Status: Accepted
Flight Details
Gross Revenue:
(138 load / € 70.75 per unit
€ 9, 763.50
Fuel Cost:
(-2172 fuel used @ 0.19 / unit)
(€ -412.68)

Additional Log Information:

View Log

Aircraft Used in flight is Airbus A320 British Airways G-EUUU
23:53 Boarding
23:53 Beacon Lights ON at 370 Feet
23:53 Brakes are On
23:53 Navigation Lights ON at 370 Feet
23:53 In Air Refuel Suspected
23:57 Engine 2 Started
23:59 Engine 1 Started
00:00 Brakes are Released
00:00 Pushing back
00:00 Flaps 3 Selected at 370ft and 0kts
00:01 Taxi Lights ON at 370 Feet
00:02 Landing Lights ON at 370 AGL
00:02 Strobe Lights ON at 370 Feet
00:03 You Took off @ 136 Knots and Flaps at Position 3 With a heading of 294 Degrees
Departure Weather EPWA 142030Z 26005KT 220V300 9999 -RA SCT010 BKN018 12/11 Q1005 NOSIG
Departure Coordinates 52.1688334556781/ 20.9559828653577
Takeoff Weight=61700KG Fuel Weight=6857KG
00:03 Landing Gear Up @ 142 Knots and 430 Feet
00:03 Taxi Lights OFF at 440 Feet
00:04 Flaps 2 Selected at 1910ft and 149kts
00:04 Flaps 0 Selected at 2090ft and 188kts
00:07 Landing Lights OFF at 10060 AGL
00:14 TOC Reached
00:45 You exceeded maximum bank angle
00:49 Below 10000 feet you are not allowed to go over 250 knots
00:49 Below FL100 you need to turn on the landing lights
00:49 Landing Lights ON at 9450 AGL
00:54 Flaps 1 Selected at 2990ft and 220kts
00:55 Flaps 3 Selected at 2060ft and 181kts
00:55 Landing Gear Down @ 177 Knots and 1970 Feet
00:55 Flaps 4 Selected at 1890ft and 157kts
00:56 Taxi Lights ON at 1860 Feet
00:56 Flaps 5 Selected at 1830ft and 152kts
00:58 You Landed @ 131 Knots with -339 Vertical Speed With a heading of 261 and with 2.6784 G Force
Arrival Weather: EDDT 142120Z 22008KT 9999 FEW020 BKN060 11/08 Q1002
Arrival Coordinates 52.5613493271844/ 13.3036858704342
Landing Weight=59477KG Fuel Weight=4633KG
00:59 Taxiing to gate
00:59 Paused
00:59 Landing Lights OFF at 130 AGL
00:59 Strobe Lights OFF at 130 Feet
00:59 Flaps 0 Selected at 130ft and 31kts
01:00 Brakes are On
01:00 Unpaused
Pirep logged with OA Virtual Tracking 1.0.2.4

Route Map